Time;durP1;ratioP1;P1;durP2;ratioP2;P2;SDS_P1;SDS_P2;PMS_P1;PMS_P2;Temp;Humidity;BMP_temperature;BMP_pressure;BME280_temperature;BME280_humidity;BME280_pressure;Samples;Min_cycle;Max_cycle;Signal;HPM_P1;HPM_P2
2021/03/20 00:01:21;;;;;;;;;46.67;39.33;;;;;;;;5000388;28;11623;-80
2021/03/20 00:03:49;;;;;;;;;49.33;43.67;;;;;;;;5007166;28;11648;-77
2021/03/20 00:06:19;;;;;;;;;41.25;38.50;;;;;;;;5001077;28;11634;-78
2021/03/20 00:08:47;;;;;;;;;54.67;45.00;;;;;;;;5002768;28;12456;-80
2021/03/20 00:11:14;;;;;;;;;40.25;38.00;;;;;;;;5004866;28;11623;-79
2021/03/20 00:13:42;;;;;;;;;46.50;40.00;;;;;;;;5003182;28;11775;-80
2021/03/20 00:16:09;;;;;;;;;47.00;45.33;;;;;;;;5000076;28;11636;-81
2021/03/20 00:18:37;;;;;;;;;66.00;49.00;;;;;;;;5002409;28;11670;-80
2021/03/20 00:21:04;;;;;;;;;49.33;45.33;;;;;;;;5002589;28;11740;-80
2021/03/20 00:23:32;;;;;;;;;39.00;39.00;;;;;;;;5002910;28;11770;-80
2021/03/20 00:25:59;;;;;;;;;51.33;45.33;;;;;;;;5003213;28;11723;-77
2021/03/20 00:28:28;;;;;;;;;32.50;27.00;;;;;;;;5001179;28;11632;-78
2021/03/20 00:30:57;;;;;;;;;49.00;43.00;;;;;;;;5002613;28;11691;-80
2021/03/20 00:33:24;;;;;;;;;42.67;42.33;;;;;;;;5003176;28;14446;-78
2021/03/20 00:35:52;;;;;;;;;48.33;44.00;;;;;;;;5002225;28;11834;-79
2021/03/20 00:38:19;;;;;;;;;53.67;43.67;;;;;;;;5003651;28;11669;-81
2021/03/20 00:40:48;;;;;;;;;56.00;46.33;;;;;;;;5002232;28;11642;-81
2021/03/20 00:43:15;;;;;;;;;36.33;36.33;;;;;;;;5003398;28;11644;-80
2021/03/20 00:45:42;;;;;;;;;46.00;39.00;;;;;;;;5007015;28;12405;-80
2021/03/20 00:48:11;;;;;;;;;48.33;42.67;;;;;;;;5002978;28;11628;-79
2021/03/20 00:50:39;;;;;;;;;40.33;36.67;;;;;;;;5002819;28;11697;-79
2021/03/20 00:53:07;;;;;;;;;46.67;40.00;;;;;;;;5002103;28;11784;-79
2021/03/20 00:55:34;;;;;;;;;44.67;41.67;;;;;;;;5003639;28;11656;-77
2021/03/20 00:58:18;;;;;;;;;10.00;10.00;;;;;;;;5001798;28;12444;-77
2021/03/20 01:00:45;;;;;;;;;47.67;45.33;;;;;;;;5001459;28;11544;-81
2021/03/20 01:03:12;;;;;;;;;50.00;42.33;;;;;;;;5001601;28;11718;-80
2021/03/20 01:05:39;;;;;;;;;51.33;45.00;;;;;;;;5003477;28;8969;-80
2021/03/20 01:08:07;;;;;;;;;48.00;41.33;;;;;;;;5002921;28;11734;-75
2021/03/20 01:10:35;;;;;;;;;36.00;35.33;;;;;;;;5001880;28;12457;-79
2021/03/20 01:13:03;;;;;;;;;47.00;42.00;;;;;;;;5003031;28;11643;-78
2021/03/20 01:15:30;;;;;;;;;43.33;41.33;;;;;;;;5002085;28;11653;-77
2021/03/20 01:17:56;;;;;;;;;46.67;43.00;;;;;;;;5003210;28;12364;-79
2021/03/20 01:20:24;;;;;;;;;48.33;44.00;;;;;;;;5004393;28;8993;-80
2021/03/20 01:22:51;;;;;;;;;51.00;46.00;;;;;;;;5003086;28;9009;-78
2021/03/20 01:25:18;;;;;;;;;46.00;43.00;;;;;;;;5002360;28;8866;-76
2021/03/20 01:27:46;;;;;;;;;47.00;43.67;;;;;;;;5001534;28;8871;-79
2021/03/20 01:30:18;;;;;;;;;52.67;43.00;;;;;;;;5001025;28;8885;-80
2021/03/20 01:32:45;;;;;;;;;52.33;47.00;;;;;;;;5003982;28;9656;-79
2021/03/20 01:35:12;;;;;;;;;44.33;39.33;;;;;;;;5001177;28;8913;-79
2021/03/20 01:37:39;;;;;;;;;55.67;42.00;;;;;;;;5001534;28;8883;-80
2021/03/20 01:40:08;;;;;;;;;51.33;47.33;;;;;;;;5003529;28;8878;-81
2021/03/20 01:42:38;;;;;;;;;51.33;44.00;;;;;;;;5000242;28;8839;-80
2021/03/20 01:45:10;;;;;;;;;49.33;42.67;;;;;;;;5001865;28;8889;-81
2021/03/20 01:47:47;;;;;;;;;53.00;47.00;;;;;;;;5003211;28;8908;-80
2021/03/20 01:50:21;;;;;;;;;64.67;55.33;;;;;;;;5001301;28;8871;-81
2021/03/20 01:52:52;;;;;;;;;55.67;48.33;;;;;;;;4994948;28;8877;-80
2021/03/20 01:55:20;;;;;;;;;53.67;46.67;;;;;;;;5002747;28;8877;-80
2021/03/20 01:57:49;;;;;;;;;47.00;43.33;;;;;;;;4992553;28;8905;-80
2021/03/20 02:00:20;;;;;;;;;55.33;47.33;;;;;;;;5002265;28;8911;-80
2021/03/20 02:02:47;;;;;;;;;133.25;117.50;;;;;;;;5001735;28;8989;-80
2021/03/20 02:05:18;;;;;;;;;77.67;61.67;;;;;;;;5006084;28;8887;-79
2021/03/20 02:07:46;;;;;;;;;46.33;42.00;;;;;;;;5004798;28;8854;-80
2021/03/20 02:10:13;;;;;;;;;52.00;46.33;;;;;;;;5006600;28;8879;-80
2021/03/20 02:12:42;;;;;;;;;47.33;43.67;;;;;;;;5005480;28;8881;-79
2021/03/20 02:15:13;;;;;;;;;59.00;46.33;;;;;;;;5006438;28;8883;-79
2021/03/20 02:17:46;;;;;;;;;46.67;43.67;;;;;;;;5005056;28;9629;-79
2021/03/20 02:20:31;;;;;;;;;55.33;48.67;;;;;;;;5004919;28;8879;-79
2021/03/20 02:23:31;;;;;;;;;44.00;39.00;;;;;;;;4988432;28;8883;-80
2021/03/20 02:26:13;;;;;;;;;45.00;41.33;;;;;;;;4972181;28;8978;-80
2021/03/20 02:29:04;;;;;;;;;49.00;44.00;;;;;;;;5003958;28;8960;-79
2021/03/20 02:31:44;;;;;;;;;44.00;43.67;;;;;;;;5005587;28;8863;-79
2021/03/20 02:34:19;;;;;;;;;49.67;42.33;;;;;;;;5002135;28;8858;-77
2021/03/20 02:36:55;;;;;;;;;50.67;46.00;;;;;;;;5004484;28;8905;-80
2021/03/20 02:39:25;;;;;;;;;41.00;38.00;;;;;;;;5005711;28;8866;-79
2021/03/20 02:41:55;;;;;;;;;42.33;40.33;;;;;;;;5004786;28;8886;-78
2021/03/20 02:44:26;;;;;;;;;57.00;43.67;;;;;;;;5004930;28;8870;-81
2021/03/20 02:46:58;;;;;;;;;47.33;42.33;;;;;;;;5004431;28;8858;-81
2021/03/20 02:49:30;;;;;;;;;49.33;45.00;;;;;;;;5006422;28;8871;-81
2021/03/20 02:52:00;;;;;;;;;57.67;49.33;;;;;;;;5005654;28;8915;-80
2021/03/20 02:54:33;;;;;;;;;44.33;42.33;;;;;;;;5004938;28;8863;-78
2021/03/20 02:57:03;;;;;;;;;44.67;42.00;;;;;;;;5005969;28;9010;-77
2021/03/20 02:59:32;;;;;;;;;53.67;46.00;;;;;;;;5001225;28;8862;-78
2021/03/20 03:02:03;;;;;;;;;52.67;45.67;;;;;;;;5002537;28;8826;-79
2021/03/20 03:04:35;;;;;;;;;53.00;47.33;;;;;;;;5003884;28;8870;-78
2021/03/20 03:07:06;;;;;;;;;48.67;44.33;;;;;;;;5005189;28;8981;-78
2021/03/20 03:09:37;;;;;;;;;46.33;45.33;;;;;;;;5004626;28;8858;-78
2021/03/20 03:12:07;;;;;;;;;49.00;44.33;;;;;;;;5000804;28;9764;-79
2021/03/20 03:14:37;;;;;;;;;48.33;46.33;;;;;;;;5004056;28;8874;-78
2021/03/20 03:17:05;;;;;;;;;49.67;45.00;;;;;;;;4998284;28;8959;-79
2021/03/20 03:19:40;;;;;;;;;54.33;49.67;;;;;;;;5010703;28;8880;-79
2021/03/20 03:22:12;;;;;;;;;48.67;45.00;;;;;;;;5004477;28;8870;-79
2021/03/20 03:24:41;;;;;;;;;51.33;45.33;;;;;;;;5003280;28;8894;-75
2021/03/20 03:27:15;;;;;;;;;64.67;51.67;;;;;;;;5005590;28;8876;-82
2021/03/20 03:29:43;;;;;;;;;39.00;36.33;;;;;;;;5004230;28;8894;-76
2021/03/20 03:32:16;;;;;;;;;42.67;42.33;;;;;;;;5008363;28;8867;-77
2021/03/20 03:34:59;;;;;;;;;47.33;44.33;;;;;;;;5005059;28;8996;-75
2021/03/20 03:37:33;;;;;;;;;41.33;41.33;;;;;;;;5004426;28;8940;-76
2021/03/20 03:40:03;;;;;;;;;49.33;43.33;;;;;;;;5003269;28;9755;-78
2021/03/20 03:42:30;;;;;;;;;57.33;48.00;;;;;;;;5004078;28;9039;-76
2021/03/20 03:44:57;;;;;;;;;54.00;48.33;;;;;;;;5005113;28;8883;-80
2021/03/20 03:47:26;;;;;;;;;44.00;41.67;;;;;;;;5002555;28;8916;-77
2021/03/20 03:49:54;;;;;;;;;43.00;38.33;;;;;;;;5004655;28;8913;-80
2021/03/20 03:52:22;;;;;;;;;50.67;42.67;;;;;;;;5002800;28;8863;-79
2021/03/20 03:54:49;;;;;;;;;54.00;47.33;;;;;;;;5004304;28;8913;-78
2021/03/20 03:57:44;;;;;;;;;52.67;47.33;;;;;;;;5004389;28;9001;-78
2021/03/20 04:00:16;;;;;;;;;45.33;43.00;;;;;;;;4999439;28;8866;-78
2021/03/20 04:02:53;;;;;;;;;47.67;41.67;;;;;;;;5002605;28;8855;-78
2021/03/20 04:05:25;;;;;;;;;43.67;40.67;;;;;;;;5003077;28;8897;-78
2021/03/20 04:08:04;;;;;;;;;47.33;40.67;;;;;;;;5004117;28;9198;-78
2021/03/20 04:10:37;;;;;;;;;46.00;41.67;;;;;;;;5004689;28;8862;-78
2021/03/20 04:13:09;;;;;;;;;46.00;44.33;;;;;;;;5002329;28;8928;-78
2021/03/20 04:15:52;;;;;;;;;43.33;40.33;;;;;;;;5001729;28;8882;-78
2021/03/20 04:18:27;;;;;;;;;51.67;46.33;;;;;;;;5002492;28;8879;-79
2021/03/20 04:21:00;;;;;;;;;54.33;41.00;;;;;;;;5002587;28;9046;-78
2021/03/20 04:23:33;;;;;;;;;40.67;40.67;;;;;;;;5004646;28;8973;-78
2021/03/20 04:26:06;;;;;;;;;42.33;37.00;;;;;;;;5001936;28;10271;-79
2021/03/20 04:28:41;;;;;;;;;35.33;35.33;;;;;;;;5004290;28;8896;-78
2021/03/20 04:31:13;;;;;;;;;42.67;37.00;;;;;;;;5000871;28;8892;-75
2021/03/20 04:33:47;;;;;;;;;35.33;35.33;;;;;;;;5004217;28;8858;-78
2021/03/20 04:36:18;;;;;;;;;35.33;32.33;;;;;;;;5004336;28;8881;-77
2021/03/20 04:38:47;;;;;;;;;34.67;31.67;;;;;;;;5003292;28;8867;-78
2021/03/20 04:41:15;;;;;;;;;51.33;43.33;;;;;;;;5004456;28;8916;-71
2021/03/20 04:43:43;;;;;;;;;38.67;34.67;;;;;;;;5002062;28;8917;-79
2021/03/20 04:46:16;;;;;;;;;42.00;40.00;;;;;;;;5003574;28;8882;-78
2021/03/20 04:48:45;;;;;;;;;37.67;36.67;;;;;;;;5001111;28;8898;-79
2021/03/20 04:51:28;;;;;;;;;41.33;36.00;;;;;;;;5003488;28;8965;-79
2021/03/20 04:54:04;;;;;;;;;38.67;37.67;;;;;;;;5003543;28;8873;-78
2021/03/20 04:56:37;;;;;;;;;36.67;36.67;;;;;;;;5002738;28;8890;-79
2021/03/20 04:59:10;;;;;;;;;29.67;29.67;;;;;;;;5002066;28;8904;-77
2021/03/20 05:01:44;;;;;;;;;26.33;24.00;;;;;;;;4999637;28;8815;-78
2021/03/20 05:04:17;;;;;;;;;36.00;30.00;;;;;;;;5001099;28;8870;-77
2021/03/20 05:06:44;;;;;;;;;37.67;34.00;;;;;;;;5004451;28;9525;-79
2021/03/20 05:09:19;;;;;;;;;26.00;23.00;;;;;;;;5002255;28;9478;-78
2021/03/20 05:11:52;;;;;;;;;38.33;31.67;;;;;;;;5003208;28;8855;-79
2021/03/20 05:14:26;;;;;;;;;40.00;34.00;;;;;;;;5001553;28;9052;-74
2021/03/20 05:16:54;;;;;;;;;36.67;36.67;;;;;;;;5003916;28;9009;-78
2021/03/20 05:19:24;;;;;;;;;35.33;35.33;;;;;;;;5004022;28;8966;-79
2021/03/20 05:21:51;;;;;;;;;32.33;32.33;;;;;;;;5002293;28;8882;-76
2021/03/20 05:24:23;;;;;;;;;37.67;35.33;;;;;;;;5003279;28;8835;-78
2021/03/20 05:26:52;;;;;;;;;37.00;37.00;;;;;;;;5003107;28;8887;-75
2021/03/20 05:29:19;;;;;;;;;34.67;34.67;;;;;;;;5002708;28;8879;-74
2021/03/20 05:31:47;;;;;;;;;43.33;38.33;;;;;;;;5004632;28;8836;-78
2021/03/20 05:34:21;;;;;;;;;44.67;44.33;;;;;;;;5006733;28;8870;-79
2021/03/20 05:36:49;;;;;;;;;45.00;36.33;;;;;;;;5004076;28;9629;-78
2021/03/20 05:39:16;;;;;;;;;41.33;39.00;;;;;;;;5005399;28;9004;-77
2021/03/20 05:42:02;;;;;;;;;43.67;38.67;;;;;;;;5005458;28;8874;-80
2021/03/20 05:44:52;;;;;;;;;38.33;36.67;;;;;;;;5003872;28;8875;-79
2021/03/20 05:47:35;;;;;;;;;45.00;40.00;;;;;;;;5005747;28;8881;-76
2021/03/20 05:50:12;;;;;;;;;42.33;41.67;;;;;;;;5006158;28;9641;-80
2021/03/20 05:52:54;;;;;;;;;48.33;43.67;;;;;;;;5010424;28;8922;-72
2021/03/20 05:55:35;;;;;;;;;43.67;39.67;;;;;;;;5007632;28;8912;-73
2021/03/20 05:58:21;;;;;;;;;42.33;40.33;;;;;;;;5015367;28;8895;-73
2021/03/20 06:00:53;;;;;;;;;40.67;34.33;;;;;;;;5004589;28;8807;-73
2021/03/20 06:03:39;;;;;;;;;37.67;36.00;;;;;;;;5007086;28;9013;-72
2021/03/20 06:06:21;;;;;;;;;38.33;32.67;;;;;;;;4994878;28;8862;-75
2021/03/20 06:08:59;;;;;;;;;37.00;37.00;;;;;;;;5006763;28;8898;-72
2021/03/20 06:11:34;;;;;;;;;42.33;34.67;;;;;;;;5006639;28;8862;-71
2021/03/20 06:14:15;;;;;;;;;30.33;30.00;;;;;;;;5005618;28;8866;-72
2021/03/20 06:16:54;;;;;;;;;38.33;33.67;;;;;;;;5006049;28;8933;-72
2021/03/20 06:19:46;;;;;;;;;35.33;30.67;;;;;;;;5007418;28;9643;-73
2021/03/20 06:22:31;;;;;;;;;41.67;39.67;;;;;;;;5006488;28;8883;-73
2021/03/20 06:25:29;;;;;;;;;40.00;40.00;;;;;;;;5006304;28;8862;-72
2021/03/20 06:27:56;;;;;;;;;41.33;38.67;;;;;;;;5002123;28;8876;-73
2021/03/20 06:30:37;;;;;;;;;46.00;40.33;;;;;;;;5004065;28;8814;-73
2021/03/20 06:33:12;;;;;;;;;44.33;41.00;;;;;;;;5007255;28;8867;-73
2021/03/20 06:35:43;;;;;;;;;39.33;36.33;;;;;;;;5003620;28;8946;-71
2021/03/20 06:38:25;;;;;;;;;42.67;40.00;;;;;;;;5005939;28;8910;-71
2021/03/20 06:41:00;;;;;;;;;46.33;45.33;;;;;;;;5003736;28;8910;-72
2021/03/20 06:43:32;;;;;;;;;34.33;26.33;;;;;;;;5012976;28;8878;-70
2021/03/20 06:46:01;;;;;;;;;52.00;46.00;;;;;;;;5004604;28;8991;-72
2021/03/20 06:48:31;;;;;;;;;47.00;43.67;;;;;;;;5006041;28;8862;-70
2021/03/20 06:51:01;;;;;;;;;52.00;44.67;;;;;;;;5008540;28;8985;-70
2021/03/20 06:53:46;;;;;;;;;49.00;42.00;;;;;;;;5007141;28;8892;-71
2021/03/20 06:56:15;;;;;;;;;56.00;47.00;;;;;;;;5005215;28;8874;-71
2021/03/20 06:58:43;;;;;;;;;67.67;54.33;;;;;;;;5003313;28;8871;-69
2021/03/20 07:01:24;;;;;;;;;49.00;46.33;;;;;;;;5004445;28;8830;-69
2021/03/20 07:04:19;;;;;;;;;45.67;38.33;;;;;;;;5005313;28;8859;-70
2021/03/20 07:07:03;;;;;;;;;40.33;39.67;;;;;;;;5004507;28;8870;-70
2021/03/20 07:09:31;;;;;;;;;42.00;41.00;;;;;;;;5001181;28;8876;-71
2021/03/20 07:12:08;;;;;;;;;49.33;44.33;;;;;;;;5004150;28;8904;-70
2021/03/20 07:14:39;;;;;;;;;49.00;43.00;;;;;;;;5004961;28;8893;-72
2021/03/20 07:17:08;;;;;;;;;48.67;43.00;;;;;;;;5005873;28;8889;-72
2021/03/20 07:19:35;;;;;;;;;54.33;45.33;;;;;;;;5004553;28;8856;-71
2021/03/20 07:22:05;;;;;;;;;64.00;51.00;;;;;;;;5004519;28;8947;-71
2021/03/20 07:24:35;;;;;;;;;51.67;45.00;;;;;;;;5003496;28;8998;-71
2021/03/20 07:27:05;;;;;;;;;52.67;47.00;;;;;;;;5005816;28;8987;-70
2021/03/20 07:29:44;;;;;;;;;45.00;42.00;;;;;;;;5004145;28;8906;-69
2021/03/20 07:32:16;;;;;;;;;49.33;43.33;;;;;;;;5003103;28;8827;-71
2021/03/20 07:34:44;;;;;;;;;63.67;50.00;;;;;;;;5004049;28;8961;-71
2021/03/20 07:37:24;;;;;;;;;49.33;42.67;;;;;;;;5004884;28;8882;-72
2021/03/20 07:39:52;;;;;;;;;49.00;45.67;;;;;;;;5004320;28;8882;-72
2021/03/20 07:42:36;;;;;;;;;40.00;36.00;;;;;;;;5003574;28;8900;-72
2021/03/20 07:45:09;;;;;;;;;40.00;39.33;;;;;;;;5004598;28;11622;-69
2021/03/20 07:47:39;;;;;;;;;41.33;39.00;;;;;;;;5003443;28;12378;-72
2021/03/20 07:50:25;;;;;;;;;65.67;55.67;;;;;;;;5002735;28;11634;-70
2021/03/20 07:53:04;;;;;;;;;61.00;50.67;;;;;;;;5005204;28;8881;-71
2021/03/20 07:55:49;;;;;;;;;71.67;57.33;;;;;;;;5004027;28;9009;-73
2021/03/20 07:58:21;;;;;;;;;54.67;47.00;;;;;;;;5002457;28;8886;-75
2021/03/20 08:00:55;;;;;;;;;60.00;45.00;;;;;;;;5001540;28;12455;-71
2021/03/20 08:03:26;;;;;;;;;57.67;46.00;;;;;;;;4995681;28;11771;-72
2021/03/20 08:05:53;;;;;;;;;47.67;39.33;;;;;;;;5002863;28;8901;-71
2021/03/20 08:08:24;;;;;;;;;48.00;44.00;;;;;;;;5003035;28;11647;-72
2021/03/20 08:10:52;;;;;;;;;48.00;41.75;;;;;;;;5003550;28;11823;-73
2021/03/20 08:13:42;;;;;;;;;49.67;44.00;;;;;;;;5002418;28;11639;-73
2021/03/20 08:16:09;;;;;;;;;44.67;43.67;;;;;;;;4998539;28;11724;-72
2021/03/20 08:18:39;;;;;;;;;43.00;40.50;;;;;;;;5002768;28;12624;-72
2021/03/20 08:21:31;;;;;;;;;48.25;37.50;;;;;;;;5003164;28;11622;-73
2021/03/20 08:24:35;;;;;;;;;48.25;42.75;;;;;;;;5002827;28;12343;-74
2021/03/20 08:27:11;;;;;;;;;40.75;37.25;;;;;;;;4961736;28;12295;-72
2021/03/20 08:30:08;;;;;;;;;51.25;38.50;;;;;;;;4960551;28;11702;-75
2021/03/20 08:32:49;;;;;;;;;39.75;38.25;;;;;;;;4974197;28;11620;-72
2021/03/20 08:35:23;;;;;;;;;42.25;39.00;;;;;;;;5000075;28;11620;-73
2021/03/20 08:38:16;;;;;;;;;45.75;42.50;;;;;;;;4997440;28;11642;-72
2021/03/20 08:40:58;;;;;;;;;34.50;32.75;;;;;;;;4992312;28;11620;-71
2021/03/20 08:43:44;;;;;;;;;74.75;57.25;;;;;;;;5001402;28;11648;-71
2021/03/20 08:46:49;;;;;;;;;48.00;41.00;;;;;;;;5002521;28;11778;-71
2021/03/20 08:49:24;;;;;;;;;44.50;37.00;;;;;;;;4958133;28;11635;-71
2021/03/20 08:51:59;;;;;;;;;66.75;54.75;;;;;;;;4988186;28;11657;-72
2021/03/20 08:54:45;;;;;;;;;62.50;48.75;;;;;;;;4996850;28;11626;-72
2021/03/20 08:57:26;;;;;;;;;51.25;42.50;;;;;;;;4998140;28;11619;-73
2021/03/20 08:59:55;;;;;;;;;70.25;57.50;;;;;;;;4996917;28;11677;-72
2021/03/20 09:02:38;;;;;;;;;62.00;50.75;;;;;;;;4998829;28;11604;-73
2021/03/20 09:05:12;;;;;;;;;57.75;49.75;;;;;;;;4996741;28;11562;-70
2021/03/20 09:07:44;;;;;;;;;42.00;40.25;;;;;;;;4996090;28;12425;-72
2021/03/20 09:10:19;;;;;;;;;48.25;42.25;;;;;;;;4995237;28;11640;-70
2021/03/20 09:12:51;;;;;;;;;56.25;47.00;;;;;;;;4995440;28;11692;-73
2021/03/20 09:15:23;;;;;;;;;63.50;52.00;;;;;;;;4995822;28;11664;-71
2021/03/20 09:17:53;;;;;;;;;55.75;46.00;;;;;;;;4994901;28;11641;-71
2021/03/20 09:20:27;;;;;;;;;42.75;37.25;;;;;;;;4996989;28;11691;-71
2021/03/20 09:22:57;;;;;;;;;46.50;35.75;;;;;;;;4996316;28;11621;-71
2021/03/20 09:25:39;;;;;;;;;54.00;45.50;;;;;;;;4995796;28;12503;-71
2021/03/20 09:28:10;;;;;;;;;41.75;40.25;;;;;;;;4996623;28;11634;-70
2021/03/20 09:30:40;;;;;;;;;40.25;37.25;;;;;;;;4996190;28;11671;-70
2021/03/20 09:33:16;;;;;;;;;53.75;44.00;;;;;;;;4996656;28;11621;-69
2021/03/20 09:35:47;;;;;;;;;36.00;30.00;;;;;;;;4995545;28;11639;-68
2021/03/20 09:38:49;;;;;;;;;40.00;39.00;;;;;;;;4996099;28;11778;-68
2021/03/20 09:41:36;;;;;;;;;48.25;40.00;;;;;;;;4992828;28;12079;-70
2021/03/20 09:44:17;;;;;;;;;35.00;33.25;;;;;;;;4996211;28;11665;-68
2021/03/20 09:46:59;;;;;;;;;58.25;47.25;;;;;;;;4997296;28;11805;-70
2021/03/20 09:49:57;;;;;;;;;50.75;45.25;;;;;;;;4992868;28;11656;-70
2021/03/20 09:52:48;;;;;;;;;44.75;40.00;;;;;;;;4994843;28;12635;-70
2021/03/20 09:55:47;;;;;;;;;54.25;45.25;;;;;;;;4996678;28;11770;-70
2021/03/20 09:58:40;;;;;;;;;48.00;41.50;;;;;;;;4933557;28;11665;-70
2021/03/20 10:01:12;;;;;;;;;47.00;38.25;;;;;;;;4989666;28;11586;-70
2021/03/20 10:04:18;;;;;;;;;35.50;34.25;;;;;;;;4993150;28;11740;-71
2021/03/20 10:07:04;;;;;;;;;35.00;32.75;;;;;;;;4990314;28;11630;-70
2021/03/20 10:09:31;;;;;;;;;43.75;37.75;;;;;;;;4996309;28;11748;-69
2021/03/20 10:12:21;;;;;;;;;35.00;33.00;;;;;;;;4997144;28;11632;-69
2021/03/20 10:15:22;;;;;;;;;40.75;37.75;;;;;;;;4994678;28;13014;-69
2021/03/20 10:18:24;;;;;;;;;49.00;44.00;;;;;;;;4982577;28;11771;-69
2021/03/20 10:21:25;;;;;;;;;45.75;36.75;;;;;;;;4997067;28;11642;-70
2021/03/20 10:24:02;;;;;;;;;41.50;38.75;;;;;;;;4995977;28;11703;-70
2021/03/20 10:26:48;;;;;;;;;41.50;38.50;;;;;;;;4998880;28;12474;-71
2021/03/20 10:29:28;;;;;;;;;40.50;39.25;;;;;;;;4999864;28;11627;-71
2021/03/20 10:32:01;;;;;;;;;36.50;30.50;;;;;;;;4997225;28;11760;-70
2021/03/20 10:34:28;;;;;;;;;43.50;35.25;;;;;;;;4992679;28;11630;-70
2021/03/20 10:37:05;;;;;;;;;38.75;33.25;;;;;;;;4999168;28;11731;-69
2021/03/20 10:39:35;;;;;;;;;26.00;26.00;;;;;;;;5000274;28;11670;-69
2021/03/20 10:42:04;;;;;;;;;35.25;33.25;;;;;;;;4999065;28;11614;-69
2021/03/20 10:44:38;;;;;;;;;59.50;45.25;;;;;;;;4999744;28;11619;-70
2021/03/20 10:47:08;;;;;;;;;32.00;32.00;;;;;;;;4999608;28;11633;-69
2021/03/20 10:49:40;;;;;;;;;46.00;39.25;;;;;;;;4998949;28;11613;-69
2021/03/20 10:52:16;;;;;;;;;39.50;33.25;;;;;;;;4999360;28;12398;-69
2021/03/20 10:54:45;;;;;;;;;29.75;27.00;;;;;;;;4998275;28;11670;-70
2021/03/20 10:57:18;;;;;;;;;40.25;35.00;;;;;;;;4999001;28;11764;-70
2021/03/20 10:59:49;;;;;;;;;54.00;42.25;;;;;;;;4997199;28;12236;-70
2021/03/20 11:02:29;;;;;;;;;33.50;27.00;;;;;;;;5000331;28;11549;-70
2021/03/20 11:05:13;;;;;;;;;32.25;30.25;;;;;;;;5008500;28;11573;-71
2021/03/20 11:07:47;;;;;;;;;33.25;30.00;;;;;;;;5002041;28;11564;-71
2021/03/20 11:10:15;;;;;;;;;30.75;28.25;;;;;;;;5005069;28;11591;-70
2021/03/20 11:12:43;;;;;;;;;30.25;27.75;;;;;;;;5006982;28;11661;-70
2021/03/20 11:15:22;;;;;;;;;31.75;29.25;;;;;;;;5002748;28;11565;-71
2021/03/20 11:17:53;;;;;;;;;27.50;25.00;;;;;;;;5002938;28;11670;-70
2021/03/20 11:20:22;;;;;;;;;35.25;31.25;;;;;;;;5000783;28;11629;-70
2021/03/20 11:22:50;;;;;;;;;32.25;31.25;;;;;;;;5003943;28;11709;-70
2021/03/20 11:25:20;;;;;;;;;31.25;28.25;;;;;;;;5003225;28;11564;-71
2021/03/20 11:27:58;;;;;;;;;34.00;24.50;;;;;;;;5004938;28;11557;-71
2021/03/20 11:30:31;;;;;;;;;30.00;25.50;;;;;;;;5003205;28;11641;-71
2021/03/20 11:33:01;;;;;;;;;27.75;25.75;;;;;;;;5002220;28;11580;-71
2021/03/20 11:35:30;;;;;;;;;22.00;18.25;;;;;;;;5002362;28;12320;-72
2021/03/20 11:38:01;;;;;;;;;32.25;28.75;;;;;;;;5003078;28;11571;-70
2021/03/20 11:40:31;;;;;;;;;28.50;26.00;;;;;;;;5001718;28;11589;-70
2021/03/20 11:43:01;;;;;;;;;23.75;23.75;;;;;;;;4999324;28;11580;-70
2021/03/20 11:45:31;;;;;;;;;24.75;24.75;;;;;;;;5003694;28;11583;-71
2021/03/20 11:48:12;;;;;;;;;21.00;20.25;;;;;;;;4997926;28;11338;-70
2021/03/20 11:50:41;;;;;;;;;22.25;19.75;;;;;;;;4999826;28;11258;-71
2021/03/20 11:53:21;;;;;;;;;20.50;19.50;;;;;;;;4998482;28;11374;-69
2021/03/20 11:55:48;;;;;;;;;22.00;20.25;;;;;;;;4997722;28;11167;-70
2021/03/20 11:58:25;;;;;;;;;21.75;18.00;;;;;;;;5001564;28;11260;-68
2021/03/20 12:00:53;;;;;;;;;23.25;21.75;;;;;;;;4998019;28;11109;-69
2021/03/20 12:03:35;;;;;;;;;18.25;16.25;;;;;;;;5000275;28;11086;-69
2021/03/20 12:06:21;;;;;;;;;20.50;18.25;;;;;;;;4999612;28;10834;-71
2021/03/20 12:08:50;;;;;;;;;34.50;34.50;;;;;;;;4996866;28;10940;-70
2021/03/20 12:11:19;;;;;;;;;20.50;19.25;;;;;;;;5000339;28;11341;-71
2021/03/20 12:13:49;;;;;;;;;29.25;24.75;;;;;;;;4998587;28;11779;-71
2021/03/20 12:16:31;;;;;;;;;26.25;25.75;;;;;;;;4995245;28;10922;-71
2021/03/20 12:19:19;;;;;;;;;35.50;31.50;;;;;;;;4999305;28;10930;-71
2021/03/20 12:22:00;;;;;;;;;48.75;37.50;;;;;;;;4999263;28;10886;-72
2021/03/20 12:24:31;;;;;;;;;49.50;41.00;;;;;;;;5000400;28;12458;-70
2021/03/20 12:27:13;;;;;;;;;34.75;31.75;;;;;;;;4999046;28;11573;-68
2021/03/20 12:29:43;;;;;;;;;34.50;31.00;;;;;;;;4998694;28;10985;-69
2021/03/20 12:32:37;;;;;;;;;37.75;35.75;;;;;;;;4995153;28;10917;-69
2021/03/20 12:35:41;;;;;;;;;34.25;30.00;;;;;;;;4997472;28;10817;-70
2021/03/20 12:38:17;;;;;;;;;35.50;27.50;;;;;;;;4998834;28;10554;-69
2021/03/20 12:40:52;;;;;;;;;30.00;29.00;;;;;;;;4999542;28;11989;-69
2021/03/20 12:43:23;;;;;;;;;18.00;18.00;;;;;;;;4997825;28;10558;-70
2021/03/20 12:45:50;;;;;;;;;17.25;17.25;;;;;;;;4999881;28;10137;-69
2021/03/20 12:48:19;;;;;;;;;19.50;19.50;;;;;;;;4998752;28;10082;-69
2021/03/20 12:50:47;;;;;;;;;22.75;18.75;;;;;;;;5000647;28;10729;-70
2021/03/20 12:53:15;;;;;;;;;54.00;44.25;;;;;;;;4997303;28;10222;-70
2021/03/20 12:55:42;;;;;;;;;25.00;20.75;;;;;;;;4998738;28;10784;-70
2021/03/20 12:58:09;;;;;;;;;20.75;16.00;;;;;;;;4999358;28;10187;-69
2021/03/20 13:00:36;;;;;;;;;22.00;21.50;;;;;;;;4996230;28;10133;-70
2021/03/20 13:03:06;;;;;;;;;23.75;21.25;;;;;;;;5002012;28;10242;-69
2021/03/20 13:05:36;;;;;;;;;27.25;24.50;;;;;;;;4998972;28;10166;-69
2021/03/20 13:08:04;;;;;;;;;46.00;38.75;;;;;;;;4998758;28;10091;-68
2021/03/20 13:10:31;;;;;;;;;27.75;26.00;;;;;;;;4996945;28;10500;-69
2021/03/20 13:12:58;;;;;;;;;27.50;27.50;;;;;;;;4997646;28;10374;-68
2021/03/20 13:15:25;;;;;;;;;29.50;28.25;;;;;;;;4999805;28;10451;-68
2021/03/20 13:17:53;;;;;;;;;34.75;27.50;;;;;;;;4997260;28;10242;-69
2021/03/20 13:20:22;;;;;;;;;31.50;31.00;;;;;;;;4998478;28;10425;-68
2021/03/20 13:22:51;;;;;;;;;30.50;24.50;;;;;;;;4997431;28;10375;-68
2021/03/20 13:25:27;;;;;;;;;32.75;30.75;;;;;;;;4998710;28;10164;-70
2021/03/20 13:27:55;;;;;;;;;20.25;20.25;;;;;;;;4997843;28;10283;-69
2021/03/20 13:30:24;;;;;;;;;23.25;23.25;;;;;;;;4996931;28;9786;-71
2021/03/20 13:32:52;;;;;;;;;28.50;27.00;;;;;;;;5002904;28;10501;-69
2021/03/20 13:35:23;;;;;;;;;26.50;23.75;;;;;;;;4994800;28;9828;-69
2021/03/20 13:37:51;;;;;;;;;23.75;22.25;;;;;;;;4998807;28;10024;-68
2021/03/20 13:40:18;;;;;;;;;31.75;31.75;;;;;;;;4996856;28;9656;-69
2021/03/20 13:42:45;;;;;;;;;31.25;31.00;;;;;;;;4998023;28;11702;-69
2021/03/20 13:45:14;;;;;;;;;39.50;36.50;;;;;;;;4995217;28;10146;-68
2021/03/20 13:47:41;;;;;;;;;28.00;27.25;;;;;;;;4995370;28;10140;-68
2021/03/20 13:50:09;;;;;;;;;33.00;31.25;;;;;;;;4998440;28;9965;-68
2021/03/20 13:52:36;;;;;;;;;31.25;29.50;;;;;;;;4997539;28;9977;-69
2021/03/20 13:55:06;;;;;;;;;31.00;31.00;;;;;;;;4998799;28;9792;-69
2021/03/20 13:57:33;;;;;;;;;21.00;21.00;;;;;;;;4997623;28;9937;-69
2021/03/20 13:59:59;;;;;;;;;28.50;25.25;;;;;;;;5000911;28;9913;-68
2021/03/20 14:02:26;;;;;;;;;23.50;23.50;;;;;;;;5001707;28;9918;-73
2021/03/20 14:04:53;;;;;;;;;33.25;27.25;;;;;;;;5003669;28;10644;-74
2021/03/20 14:07:28;;;;;;;;;29.25;27.50;;;;;;;;5002906;28;9942;-75
2021/03/20 14:09:55;;;;;;;;;35.50;33.50;;;;;;;;5001302;28;10184;-74
2021/03/20 14:12:24;;;;;;;;;34.00;28.50;;;;;;;;5003380;28;10036;-75
2021/03/20 14:14:53;;;;;;;;;17.00;14.25;;;;;;;;5004053;28;10540;-75
2021/03/20 14:17:20;;;;;;;;;25.75;25.75;;;;;;;;5003669;28;9764;-79
2021/03/20 14:19:47;;;;;;;;;28.75;28.00;;;;;;;;5000341;28;10698;-73
2021/03/20 14:22:14;;;;;;;;;31.25;29.75;;;;;;;;5002415;28;9800;-73
2021/03/20 14:24:41;;;;;;;;;28.75;27.50;;;;;;;;4997976;28;9813;-74
2021/03/20 14:27:09;;;;;;;;;33.25;33.25;;;;;;;;5000292;28;9964;-74
2021/03/20 14:29:37;;;;;;;;;30.75;30.75;;;;;;;;5002087;28;9755;-76
2021/03/20 14:32:05;;;;;;;;;37.25;33.50;;;;;;;;5002014;28;9505;-75
2021/03/20 14:34:32;;;;;;;;;30.75;26.75;;;;;;;;5001729;28;9781;-75
2021/03/20 14:36:59;;;;;;;;;35.75;35.25;;;;;;;;5001336;28;9553;-73
2021/03/20 14:39:26;;;;;;;;;35.00;32.00;;;;;;;;5002376;28;9812;-75
2021/03/20 14:41:53;;;;;;;;;40.00;34.00;;;;;;;;5001855;28;9815;-79
2021/03/20 14:44:20;;;;;;;;;40.25;37.00;;;;;;;;5003408;28;10094;-78
2021/03/20 14:46:48;;;;;;;;;48.75;42.75;;;;;;;;5001944;28;9976;-75
2021/03/20 14:49:15;;;;;;;;;42.00;37.00;;;;;;;;5001093;28;10131;-76
2021/03/20 14:51:43;;;;;;;;;40.75;36.50;;;;;;;;4999748;28;10125;-75
2021/03/20 14:54:10;;;;;;;;;45.50;38.00;;;;;;;;4997918;28;9986;-76
2021/03/20 14:56:38;;;;;;;;;31.25;31.25;;;;;;;;5001981;28;10174;-77
2021/03/20 14:59:05;;;;;;;;;41.00;37.00;;;;;;;;5001626;28;9896;-77
2021/03/20 15:01:32;;;;;;;;;37.00;34.50;;;;;;;;5001725;28;10135;-80